This is the latest recevied weather packets stored in our database for station/object R1CBW-13. If no packets are shown the sender has not sent any weather packets the latest 10 day(s).
| Time | Temp. | Humidity | Pressure | Rain* | Wind** | Luminosity | Snow |
|---|---|---|---|---|---|---|---|
| 1776933972 | 3.89° C | 43% | 1005.2 hPa | 0 mm | - | - | - |
| 1776933913 | 3.33° C | 44% | 1005.2 hPa | 0 mm | - | - | - |
| 1776933852 | 2.78° C | 45% | 1005.3 hPa | 0 mm | - | - | - |
| 1776933792 | 2.78° C | 44% | 1005.3 hPa | 0 mm | - | - | - |
| 1776933732 | 2.22° C | 46% | 1005.4 hPa | 0 mm | - | - | - |
| 1776933672 | 2.78° C | 45% | 1005.3 hPa | 0 mm | - | - | - |
| 1776933612 | 2.22° C | 46% | 1005.4 hPa | 0 mm | - | - | - |
| 1776933552 | 2.22° C | 46% | 1005.4 hPa | 0 mm | - | - | - |
| 1776933492 | 2.78° C | 45% | 1005.2 hPa | 0 mm | - | - | - |
| 1776933432 | 2.78° C | 45% | 1005.5 hPa | 0 mm | - | - | - |
| 1776933372 | 4.44° C | 43% | 1005.1 hPa | 0 mm | - | - | - |
| 1776933312 | 3.89° C | 44% | 1005.2 hPa | 0 mm | - | - | - |
| 1776933252 | 3.33° C | 44% | 1005.1 hPa | 0 mm | - | - | - |
| 1776933192 | 3.89° C | 43% | 1005.1 hPa | 0 mm | - | - | - |
| 1776933133 | 3.33° C | 44% | 1005.1 hPa | 0 mm | - | - | - |
| 1776933072 | 3.33° C | 44% | 1005.1 hPa | 0 mm | - | - | - |
| 1776933012 | 2.78° C | 45% | 1005.1 hPa | 0 mm | - | - | - |
| 1776932952 | 3.33° C | 45% | 1005 hPa | 0 mm | - | - | - |
| 1776932892 | 2.78° C | 45% | 1005.1 hPa | 0 mm | - | - | - |
| 1776932832 | 2.78° C | 44% | 1005.2 hPa | 0 mm | - | - | - |
| 1776932772 | 3.33° C | 46% | 1005 hPa | 0 mm | - | - | - |
| 1776932712 | 2.78° C | 46% | 1004.9 hPa | 0 mm | - | - | - |
| 1776932652 | 2.78° C | 45% | 1004.9 hPa | 0 mm | - | - | - |
| 1776932592 | 3.33° C | 44% | 1004.9 hPa | 0 mm | - | - | - |
| 1776932532 | 3.89° C | 43% | 1004.9 hPa | 0 mm | - | - | - |
* Rain latest hour (hover to see other rain measurements)
** Current wind speed in m/s (hover to see current wind gust speed)